sensor_id;sensor_type;location;lat;lon;timestamp;temperature;humidity
21762;DHT22;11203;50.870;20.682;2022-08-11T11:26:09;18.80;1.00
21762;DHT22;11203;50.870;20.682;2022-08-11T11:37:44;18.90;1.00
21762;DHT22;11203;50.870;20.682;2022-08-11T11:40:16;19.10;99.90
21762;DHT22;11203;50.870;20.682;2022-08-11T11:42:49;19.30;7.50
21762;DHT22;11203;50.870;20.682;2022-08-11T11:45:21;19.30;1.00
21762;DHT22;11203;50.870;20.682;2022-08-11T11:47:51;19.50;1.00
21762;DHT22;11203;50.870;20.682;2022-08-11T11:50:31;19.60;1.00
21762;DHT22;11203;50.870;20.682;2022-08-11T11:53:11;19.60;1.00
21762;DHT22;11203;50.870;20.682;2022-08-11T11:55:37;19.70;1.00
21762;DHT22;11203;50.870;20.682;2022-08-11T11:58:04;19.70;89.60
21762;DHT22;11203;50.870;20.682;2022-08-11T12:00:51;19.40;1.00
21762;DHT22;11203;50.870;20.682;2022-08-11T12:03:37;19.10;8.30
21762;DHT22;11203;50.870;20.682;2022-08-11T12:06:06;18.80;99.90
21762;DHT22;11203;50.870;20.682;2022-08-11T12:08:33;18.40;73.30
21762;DHT22;11203;50.870;20.682;2022-08-11T12:11:01;18.10;99.90
21762;DHT22;11203;50.870;20.682;2022-08-11T12:13:52;17.90;1.00
21762;DHT22;11203;50.870;20.682;2022-08-11T12:16:19;17.90;99.90
21762;DHT22;11203;50.870;20.682;2022-08-11T12:18:49;17.60;99.90
21762;DHT22;11203;50.870;20.682;2022-08-11T12:21:16;17.20;99.90
21762;DHT22;11203;50.870;20.682;2022-08-11T12:23:45;17.20;1.00
21762;DHT22;11203;50.870;20.682;2022-08-11T12:26:32;17.10;1.00
21762;DHT22;11203;50.870;20.682;2022-08-11T12:29:18;17.00;99.90
21762;DHT22;11203;50.870;20.682;2022-08-11T12:31:46;15.90;1.00
21762;DHT22;11203;50.870;20.682;2022-08-11T12:34:14;14.70;99.90
21762;DHT22;11203;50.870;20.682;2022-08-11T12:36:51;14.40;1.00
21762;DHT22;11203;50.870;20.682;2022-08-11T12:39:24;14.40;99.90
21762;DHT22;11203;50.870;20.682;2022-08-11T12:42:18;14.40;99.90
21762;DHT22;11203;50.870;20.682;2022-08-11T12:45:09;14.40;99.90
21762;DHT22;11203;50.870;20.682;2022-08-11T12:48:19;14.20;99.90
21762;DHT22;11203;50.870;20.682;2022-08-11T12:51:09;14.00;99.90
21762;DHT22;11203;50.870;20.682;2022-08-11T12:53:59;13.90;99.90
21762;DHT22;11203;50.870;20.682;2022-08-11T12:56:45;13.90;99.90
21762;DHT22;11203;50.870;20.682;2022-08-11T12:59:34;14.00;99.90
21762;DHT22;11203;50.870;20.682;2022-08-11T13:02:20;14.30;99.90
21762;DHT22;11203;50.870;20.682;2022-08-11T13:05:07;14.50;99.90
21762;DHT22;11203;50.870;20.682;2022-08-11T13:07:37;14.60;99.90
21762;DHT22;11203;50.870;20.682;2022-08-11T13:10:09;14.80;99.90
21762;DHT22;11203;50.870;20.682;2022-08-11T13:12:37;14.90;99.90
21762;DHT22;11203;50.870;20.682;2022-08-11T13:15:23;14.80;99.90
21762;DHT22;11203;50.870;20.682;2022-08-11T13:17:51;14.70;99.90
21762;DHT22;11203;50.870;20.682;2022-08-11T13:20:21;14.70;99.90
21762;DHT22;11203;50.870;20.682;2022-08-11T13:22:51;15.00;99.90
21762;DHT22;11203;50.870;20.682;2022-08-11T13:25:21;15.10;99.90
21762;DHT22;11203;50.870;20.682;2022-08-11T13:27:49;15.20;99.90
21762;DHT22;11203;50.870;20.682;2022-08-11T13:30:17;15.30;99.90
21762;DHT22;11203;50.870;20.682;2022-08-11T13:33:04;15.30;99.90
21762;DHT22;11203;50.870;20.682;2022-08-11T13:35:33;15.40;99.90
21762;DHT22;11203;50.870;20.682;2022-08-11T13:38:03;15.50;99.90
21762;DHT22;11203;50.870;20.682;2022-08-11T13:40:31;15.50;99.90
21762;DHT22;11203;50.870;20.682;2022-08-11T13:42:58;15.50;99.90
21762;DHT22;11203;50.870;20.682;2022-08-11T13:45:25;15.50;99.90
21762;DHT22;11203;50.870;20.682;2022-08-11T13:47:55;15.50;99.90
21762;DHT22;11203;50.870;20.682;2022-08-11T13:50:23;15.60;99.90
21762;DHT22;11203;50.870;20.682;2022-08-11T13:53:11;15.70;99.90
21762;DHT22;11203;50.870;20.682;2022-08-11T13:55:40;15.90;99.90
21762;DHT22;11203;50.870;20.682;2022-08-11T13:58:09;15.70;99.90
21762;DHT22;11203;50.870;20.682;2022-08-11T14:00:37;15.90;99.90
21762;DHT22;11203;50.870;20.682;2022-08-11T14:03:07;16.00;99.90
21762;DHT22;11203;50.870;20.682;2022-08-11T14:05:44;16.10;99.90
21762;DHT22;11203;50.870;20.682;2022-08-11T14:08:16;16.30;99.90
21762;DHT22;11203;50.870;20.682;2022-08-11T14:10:47;16.30;99.90
21762;DHT22;11203;50.870;20.682;2022-08-11T14:13:38;16.60;99.90
21762;DHT22;11203;50.870;20.682;2022-08-11T14:16:11;16.40;99.90
21762;DHT22;11203;50.870;20.682;2022-08-11T14:18:47;16.50;99.90
21762;DHT22;11203;50.870;20.682;2022-08-11T14:21:15;16.60;99.90
21762;DHT22;11203;50.870;20.682;2022-08-11T14:24:02;16.70;99.90
21762;DHT22;11203;50.870;20.682;2022-08-11T14:26:29;16.80;99.90
21762;DHT22;11203;50.870;20.682;2022-08-11T14:29:08;16.90;99.90
21762;DHT22;11203;50.870;20.682;2022-08-11T14:31:51;16.90;99.90
21762;DHT22;11203;50.870;20.682;2022-08-11T14:34:25;16.70;99.90
21762;DHT22;11203;50.870;20.682;2022-08-11T14:36:57;17.00;99.90
21762;DHT22;11203;50.870;20.682;2022-08-11T14:39:27;17.20;99.90
21762;DHT22;11203;50.870;20.682;2022-08-11T14:41:59;17.40;99.90
21762;DHT22;11203;50.870;20.682;2022-08-11T14:45:06;17.30;99.90
21762;DHT22;11203;50.870;20.682;2022-08-11T14:47:58;17.20;99.90
21762;DHT22;11203;50.870;20.682;2022-08-11T14:50:28;17.70;99.90
21762;DHT22;11203;50.870;20.682;2022-08-11T14:53:04;17.70;99.90
21762;DHT22;11203;50.870;20.682;2022-08-11T14:55:37;17.40;99.90
21762;DHT22;11203;50.870;20.682;2022-08-11T14:58:25;17.50;99.90
21762;DHT22;11203;50.870;20.682;2022-08-11T15:00:56;17.40;99.90
21762;DHT22;11203;50.870;20.682;2022-08-11T15:03:27;17.60;99.90
21762;DHT22;11203;50.870;20.682;2022-08-11T15:05:56;17.70;99.90
21762;DHT22;11203;50.870;20.682;2022-08-11T15:08:32;17.80;99.90
21762;DHT22;11203;50.870;20.682;2022-08-11T15:11:20;18.00;99.90
21762;DHT22;11203;50.870;20.682;2022-08-11T15:14:08;17.90;99.90
21762;DHT22;11203;50.870;20.682;2022-08-11T15:16:36;18.00;99.90
21762;DHT22;11203;50.870;20.682;2022-08-11T15:19:25;18.10;99.90
21762;DHT22;11203;50.870;20.682;2022-08-11T15:21:53;17.60;99.90
21762;DHT22;11203;50.870;20.682;2022-08-11T15:24:38;17.60;99.90
21762;DHT22;11203;50.870;20.682;2022-08-11T15:27:11;17.50;99.90
21762;DHT22;11203;50.870;20.682;2022-08-11T15:30:00;17.40;99.90
21762;DHT22;11203;50.870;20.682;2022-08-11T15:32:46;17.20;99.90
21762;DHT22;11203;50.870;20.682;2022-08-11T15:35:33;17.20;99.90
21762;DHT22;11203;50.870;20.682;2022-08-11T15:38:21;16.90;99.90
21762;DHT22;11203;50.870;20.682;2022-08-11T15:40:50;17.00;99.90
21762;DHT22;11203;50.870;20.682;2022-08-11T15:43:42;17.00;99.90
21762;DHT22;11203;50.870;20.682;2022-08-11T15:46:48;17.00;99.90
21762;DHT22;11203;50.870;20.682;2022-08-11T15:49:33;17.00;99.90
21762;DHT22;11203;50.870;20.682;2022-08-11T15:52:06;16.90;99.90
21762;DHT22;11203;50.870;20.682;2022-08-11T15:54:39;16.70;99.90
21762;DHT22;11203;50.870;20.682;2022-08-11T15:57:07;16.60;99.90
21762;DHT22;11203;50.870;20.682;2022-08-11T15:59:56;16.40;99.90
21762;DHT22;11203;50.870;20.682;2022-08-11T16:02:43;16.30;99.90
21762;DHT22;11203;50.870;20.682;2022-08-11T16:05:21;16.10;99.90
21762;DHT22;11203;50.870;20.682;2022-08-11T16:07:50;16.20;99.90
21762;DHT22;11203;50.870;20.682;2022-08-11T16:10:18;16.20;99.90
21762;DHT22;11203;50.870;20.682;2022-08-11T16:15:53;16.20;99.90
21762;DHT22;11203;50.870;20.682;2022-08-11T16:18:49;16.20;99.90
21762;DHT22;11203;50.870;20.682;2022-08-11T16:21:23;16.20;99.90
21762;DHT22;11203;50.870;20.682;2022-08-11T16:23:56;16.20;99.90
21762;DHT22;11203;50.870;20.682;2022-08-11T16:26:24;16.30;99.90
21762;DHT22;11203;50.870;20.682;2022-08-11T16:28:56;16.20;99.90
21762;DHT22;11203;50.870;20.682;2022-08-11T16:31:24;16.20;99.90
21762;DHT22;11203;50.870;20.682;2022-08-11T16:33:52;16.50;99.90
21762;DHT22;11203;50.870;20.682;2022-08-11T16:36:22;16.20;99.90
21762;DHT22;11203;50.870;20.682;2022-08-11T16:39:09;16.10;99.90
21762;DHT22;11203;50.870;20.682;2022-08-11T16:41:39;16.50;99.90
21762;DHT22;11203;50.870;20.682;2022-08-11T16:44:25;16.40;99.90
21762;DHT22;11203;50.870;20.682;2022-08-11T16:47:13;16.10;99.90
21762;DHT22;11203;50.870;20.682;2022-08-11T16:49:46;16.10;99.90
21762;DHT22;11203;50.870;20.682;2022-08-11T16:52:14;16.30;99.90
21762;DHT22;11203;50.870;20.682;2022-08-11T16:54:41;16.40;99.90
21762;DHT22;11203;50.870;20.682;2022-08-11T16:57:14;16.50;99.90
21762;DHT22;11203;50.870;20.682;2022-08-11T17:00:03;16.70;99.90
21762;DHT22;11203;50.870;20.682;2022-08-11T17:02:39;16.70;99.90
21762;DHT22;11203;50.870;20.682;2022-08-11T17:05:28;16.80;99.90
21762;DHT22;11203;50.870;20.682;2022-08-11T17:08:17;16.80;99.90
21762;DHT22;11203;50.870;20.682;2022-08-11T17:11:04;17.00;99.90
21762;DHT22;11203;50.870;20.682;2022-08-11T17:13:57;16.80;99.90
21762;DHT22;11203;50.870;20.682;2022-08-11T17:16:29;16.80;99.90
21762;DHT22;11203;50.870;20.682;2022-08-11T17:19:10;16.90;99.90
21762;DHT22;11203;50.870;20.682;2022-08-11T17:21:45;16.70;99.90
21762;DHT22;11203;50.870;20.682;2022-08-11T17:24:34;16.60;99.90
21762;DHT22;11203;50.870;20.682;2022-08-11T17:27:04;16.80;99.90
21762;DHT22;11203;50.870;20.682;2022-08-11T17:32:06;16.80;99.90
21762;DHT22;11203;50.870;20.682;2022-08-11T17:35:00;16.90;99.90
21762;DHT22;11203;50.870;20.682;2022-08-11T17:37:49;17.00;99.90
21762;DHT22;11203;50.870;20.682;2022-08-11T17:40:21;17.00;99.90
21762;DHT22;11203;50.870;20.682;2022-08-11T17:42:51;17.10;99.90
21762;DHT22;11203;50.870;20.682;2022-08-11T17:45:43;16.90;99.90
21762;DHT22;11203;50.870;20.682;2022-08-11T17:48:34;16.90;99.90
21762;DHT22;11203;50.870;20.682;2022-08-11T17:51:08;17.00;99.90
21762;DHT22;11203;50.870;20.682;2022-08-11T17:53:39;16.90;99.90
21762;DHT22;11203;50.870;20.682;2022-08-11T17:56:27;16.80;99.90
21762;DHT22;11203;50.870;20.682;2022-08-11T17:59:14;16.80;99.90
21762;DHT22;11203;50.870;20.682;2022-08-11T18:02:02;16.50;99.90
21762;DHT22;11203;50.870;20.682;2022-08-11T18:04:50;16.50;99.90
21762;DHT22;11203;50.870;20.682;2022-08-11T18:07:19;16.50;99.90
21762;DHT22;11203;50.870;20.682;2022-08-11T18:10:05;16.20;99.90
21762;DHT22;11203;50.870;20.682;2022-08-11T18:12:52;16.20;99.90
21762;DHT22;11203;50.870;20.682;2022-08-11T18:15:40;16.00;99.90
21762;DHT22;11203;50.870;20.682;2022-08-11T18:18:26;16.20;99.90
21762;DHT22;11203;50.870;20.682;2022-08-11T18:21:13;16.20;99.90
21762;DHT22;11203;50.870;20.682;2022-08-11T18:24:10;16.00;99.90
21762;DHT22;11203;50.870;20.682;2022-08-11T18:26:59;15.80;99.90
21762;DHT22;11203;50.870;20.682;2022-08-11T18:29:48;15.90;99.90
21762;DHT22;11203;50.870;20.682;2022-08-11T18:32:35;15.90;99.90
21762;DHT22;11203;50.870;20.682;2022-08-11T18:35:22;15.80;99.90
21762;DHT22;11203;50.870;20.682;2022-08-11T18:38:10;15.60;99.90
21762;DHT22;11203;50.870;20.682;2022-08-11T18:40:57;15.60;99.90
21762;DHT22;11203;50.870;20.682;2022-08-11T18:43:45;15.50;99.90
21762;DHT22;11203;50.870;20.682;2022-08-11T18:46:33;15.40;99.90
21762;DHT22;11203;50.870;20.682;2022-08-11T18:49:30;15.40;99.90
21762;DHT22;11203;50.870;20.682;2022-08-11T18:52:19;15.30;99.90
21762;DHT22;11203;50.870;20.682;2022-08-11T18:55:08;15.40;99.90
21762;DHT22;11203;50.870;20.682;2022-08-11T18:57:56;15.40;99.90
21762;DHT22;11203;50.870;20.682;2022-08-11T19:00:43;15.40;99.90
21762;DHT22;11203;50.870;20.682;2022-08-11T19:03:30;15.20;99.90
21762;DHT22;11203;50.870;20.682;2022-08-11T19:06:18;15.30;99.90
21762;DHT22;11203;50.870;20.682;2022-08-11T19:09:06;15.20;99.90
21762;DHT22;11203;50.870;20.682;2022-08-11T19:11:54;15.20;99.90
21762;DHT22;11203;50.870;20.682;2022-08-11T19:14:40;15.10;99.90
21762;DHT22;11203;50.870;20.682;2022-08-11T19:17:29;14.90;99.90
21762;DHT22;11203;50.870;20.682;2022-08-11T19:20:17;14.80;99.90
21762;DHT22;11203;50.870;20.682;2022-08-11T19:23:07;14.80;99.90
21762;DHT22;11203;50.870;20.682;2022-08-11T19:25:53;14.70;99.90
21762;DHT22;11203;50.870;20.682;2022-08-11T19:28:41;14.60;99.90
21762;DHT22;11203;50.870;20.682;2022-08-11T19:31:28;14.60;99.90
21762;DHT22;11203;50.870;20.682;2022-08-11T19:34:16;14.50;99.90
21762;DHT22;11203;50.870;20.682;2022-08-11T19:37:04;14.50;99.90
21762;DHT22;11203;50.870;20.682;2022-08-11T19:39:52;14.50;99.90
21762;DHT22;11203;50.870;20.682;2022-08-11T19:42:40;14.50;99.90
21762;DHT22;11203;50.870;20.682;2022-08-11T19:45:25;14.50;99.90
21762;DHT22;11203;50.870;20.682;2022-08-11T19:48:10;14.60;99.90
21762;DHT22;11203;50.870;20.682;2022-08-11T19:50:55;14.50;99.90
21762;DHT22;11203;50.870;20.682;2022-08-11T19:53:40;14.50;99.90
21762;DHT22;11203;50.870;20.682;2022-08-11T19:56:26;14.50;99.90
21762;DHT22;11203;50.870;20.682;2022-08-11T19:59:12;14.50;99.90
21762;DHT22;11203;50.870;20.682;2022-08-11T20:01:57;14.40;99.90
21762;DHT22;11203;50.870;20.682;2022-08-11T20:04:42;14.40;99.90
21762;DHT22;11203;50.870;20.682;2022-08-11T20:07:28;14.40;99.90
21762;DHT22;11203;50.870;20.682;2022-08-11T20:10:16;14.40;99.90
21762;DHT22;11203;50.870;20.682;2022-08-11T20:13:06;14.30;99.90
21762;DHT22;11203;50.870;20.682;2022-08-11T20:15:54;14.30;99.90
21762;DHT22;11203;50.870;20.682;2022-08-11T20:18:41;14.40;99.90
21762;DHT22;11203;50.870;20.682;2022-08-11T20:21:27;14.40;99.90
21762;DHT22;11203;50.870;20.682;2022-08-11T20:24:13;14.40;99.90
21762;DHT22;11203;50.870;20.682;2022-08-11T20:26:59;14.40;99.90
21762;DHT22;11203;50.870;20.682;2022-08-11T20:29:47;14.40;99.90
21762;DHT22;11203;50.870;20.682;2022-08-11T20:32:33;14.40;99.90
21762;DHT22;11203;50.870;20.682;2022-08-11T20:35:20;14.50;99.90
21762;DHT22;11203;50.870;20.682;2022-08-11T20:38:07;14.40;99.90
21762;DHT22;11203;50.870;20.682;2022-08-11T20:40:53;14.50;99.90
21762;DHT22;11203;50.870;20.682;2022-08-11T20:43:38;14.50;99.90
21762;DHT22;11203;50.870;20.682;2022-08-11T20:46:24;14.50;99.90
21762;DHT22;11203;50.870;20.682;2022-08-11T20:49:10;14.40;99.90
21762;DHT22;11203;50.870;20.682;2022-08-11T20:51:56;14.40;99.90
21762;DHT22;11203;50.870;20.682;2022-08-11T20:54:41;14.40;99.90
21762;DHT22;11203;50.870;20.682;2022-08-11T20:57:26;14.40;99.90
21762;DHT22;11203;50.870;20.682;2022-08-11T21:00:12;14.20;99.90
21762;DHT22;11203;50.870;20.682;2022-08-11T21:02:57;14.10;99.90
21762;DHT22;11203;50.870;20.682;2022-08-11T21:05:44;14.10;99.90
21762;DHT22;11203;50.870;20.682;2022-08-11T21:08:35;14.10;99.90
21762;DHT22;11203;50.870;20.682;2022-08-11T21:11:22;14.30;99.90
21762;DHT22;11203;50.870;20.682;2022-08-11T21:14:11;14.40;99.90
21762;DHT22;11203;50.870;20.682;2022-08-11T21:16:59;14.40;99.90
21762;DHT22;11203;50.870;20.682;2022-08-11T21:19:50;14.40;99.90
21762;DHT22;11203;50.870;20.682;2022-08-11T21:22:44;14.40;99.90
21762;DHT22;11203;50.870;20.682;2022-08-11T21:25:39;14.50;99.90
21762;DHT22;11203;50.870;20.682;2022-08-11T21:28:30;14.50;99.90
21762;DHT22;11203;50.870;20.682;2022-08-11T21:31:17;14.50;99.90
21762;DHT22;11203;50.870;20.682;2022-08-11T21:34:03;14.50;99.90
21762;DHT22;11203;50.870;20.682;2022-08-11T21:36:50;14.50;99.90
21762;DHT22;11203;50.870;20.682;2022-08-11T21:39:35;14.50;99.90
21762;DHT22;11203;50.870;20.682;2022-08-11T21:42:21;14.50;99.90
21762;DHT22;11203;50.870;20.682;2022-08-11T21:45:07;14.50;99.90
21762;DHT22;11203;50.870;20.682;2022-08-11T21:47:54;14.50;99.90
21762;DHT22;11203;50.870;20.682;2022-08-11T21:50:39;14.50;99.90
21762;DHT22;11203;50.870;20.682;2022-08-11T21:53:26;14.50;99.90
21762;DHT22;11203;50.870;20.682;2022-08-11T21:56:11;14.50;99.90
21762;DHT22;11203;50.870;20.682;2022-08-11T21:58:57;14.60;99.90
21762;DHT22;11203;50.870;20.682;2022-08-11T22:01:44;14.50;99.90
21762;DHT22;11203;50.870;20.682;2022-08-11T22:04:33;14.60;99.90
21762;DHT22;11203;50.870;20.682;2022-08-11T22:07:20;14.60;99.90
21762;DHT22;11203;50.870;20.682;2022-08-11T22:10:05;14.50;99.90
21762;DHT22;11203;50.870;20.682;2022-08-11T22:12:51;14.50;99.90
21762;DHT22;11203;50.870;20.682;2022-08-11T22:15:36;14.30;99.90
21762;DHT22;11203;50.870;20.682;2022-08-11T22:18:22;14.40;99.90
21762;DHT22;11203;50.870;20.682;2022-08-11T22:21:09;14.20;99.90
21762;DHT22;11203;50.870;20.682;2022-08-11T22:23:55;14.10;99.90
21762;DHT22;11203;50.870;20.682;2022-08-11T22:26:40;14.10;99.90
21762;DHT22;11203;50.870;20.682;2022-08-11T22:29:25;14.10;99.90
21762;DHT22;11203;50.870;20.682;2022-08-11T22:32:11;14.10;99.90
21762;DHT22;11203;50.870;20.682;2022-08-11T22:34:57;14.00;99.90
21762;DHT22;11203;50.870;20.682;2022-08-11T22:37:45;14.00;99.90
21762;DHT22;11203;50.870;20.682;2022-08-11T22:40:31;14.00;99.90
21762;DHT22;11203;50.870;20.682;2022-08-11T22:43:17;13.90;99.90
21762;DHT22;11203;50.870;20.682;2022-08-11T22:46:03;13.80;99.90
21762;DHT22;11203;50.870;20.682;2022-08-11T22:48:48;13.90;99.90
21762;DHT22;11203;50.870;20.682;2022-08-11T22:51:34;13.80;99.90
21762;DHT22;11203;50.870;20.682;2022-08-11T22:54:19;13.70;99.90
21762;DHT22;11203;50.870;20.682;2022-08-11T22:57:06;13.70;99.90
21762;DHT22;11203;50.870;20.682;2022-08-11T22:59:52;13.60;99.90
21762;DHT22;11203;50.870;20.682;2022-08-11T23:02:37;13.60;99.90
21762;DHT22;11203;50.870;20.682;2022-08-11T23:05:23;13.60;99.90
21762;DHT22;11203;50.870;20.682;2022-08-11T23:08:08;13.60;99.90
21762;DHT22;11203;50.870;20.682;2022-08-11T23:10:55;13.70;99.90
21762;DHT22;11203;50.870;20.682;2022-08-11T23:13:40;13.60;99.90
21762;DHT22;11203;50.870;20.682;2022-08-11T23:16:27;13.50;99.90
21762;DHT22;11203;50.870;20.682;2022-08-11T23:19:14;13.30;99.90
21762;DHT22;11203;50.870;20.682;2022-08-11T23:21:58;13.30;99.90
21762;DHT22;11203;50.870;20.682;2022-08-11T23:24:45;13.20;99.90
21762;DHT22;11203;50.870;20.682;2022-08-11T23:27:30;13.10;99.90
21762;DHT22;11203;50.870;20.682;2022-08-11T23:30:16;13.20;99.90
21762;DHT22;11203;50.870;20.682;2022-08-11T23:33:01;13.20;99.90
21762;DHT22;11203;50.870;20.682;2022-08-11T23:35:50;13.10;99.90
21762;DHT22;11203;50.870;20.682;2022-08-11T23:38:35;13.20;99.90
21762;DHT22;11203;50.870;20.682;2022-08-11T23:41:20;13.20;99.90
21762;DHT22;11203;50.870;20.682;2022-08-11T23:44:07;13.20;99.90
21762;DHT22;11203;50.870;20.682;2022-08-11T23:46:57;13.20;99.90
21762;DHT22;11203;50.870;20.682;2022-08-11T23:49:44;13.20;99.90
21762;DHT22;11203;50.870;20.682;2022-08-11T23:52:32;13.10;99.90
21762;DHT22;11203;50.870;20.682;2022-08-11T23:55:19;12.90;99.90
21762;DHT22;11203;50.870;20.682;2022-08-11T23:58:05;12.80;99.90
